Route Details

Aircraft Information
Group: Boeing 737 Only
Types: B738
Route Data
Distance: 440nm
Duration: 1h 19m
Origin METAR: MMTC 072348Z 08007KT 10SM SCT120 SCT220 27/M04 A2991 RMK SLP059 56010 914 8/042
Dest. METAR: MMMX 080044Z 14010G20KT 10SM SKC 21/04 A3019 NOSIG RMK HZY
Freight Data
(for Feb 8, 2023)
Load Factor:
56%
Manifested Cargo: 30,482lbs
Financial History
Total Freight: 296,140lbs
Average Load: 0lbs/flt
Fuel Used: 66,129lbs
Avg. Fuel Used: 0lbs/flt
Fuel Expense: $42,506
Avg. Fuel Expense: $0
Avg. Fuel Cost: $0/lbs
Total Gross Income: $908,988
Pilot Pay: $1,843
Total Expenses: $160,187
Total Revenue: $702,894
Average Revenue: $0

Capitol Logistics 701




MMTC
Francisco Sarabia International Airport
Torreon, MX
MMMX
Benito Juárez International Airport
Mexico City, MX

Activity Log

Date Flight Route Aircraft Duration
11/04/2022 CPX701 Not Available B738 1h 40m
09/15/2022 CPX701 Not Available B738 1h 36m
08/26/2022 CPX701 Not Available B738 1h 28m
07/05/2022 CPX3132 URTIG3 URTIG UJ47 SLP UT131 DARAN DARA2A B738 1h 27m
06/26/2022 CPX3132 TRC4B TRC UJ47 SLP UT131 DARAN DARA2A B752 1h 33m
06/18/2022 CPX3132 URTIG3 URTIG UJ47 SLP UT131 DARAN DARA2A TEST B738 1h 31m
01/25/2022 CPX3132 TRC4B TRC UJ47 SLP UT131 DARAN DARA1A B738 1h 32m